sensor_id;sensor_type;location;lat;lon;timestamp;temperature;humidity
2999;DHT22;1509;51.964;7.628;2022-09-09T00:01:54;16.80;99.90
2999;DHT22;1509;51.964;7.628;2022-09-09T00:04:33;16.80;99.90
2999;DHT22;1509;51.964;7.628;2022-09-09T00:07:19;16.80;99.90
2999;DHT22;1509;51.964;7.628;2022-09-09T00:09:50;16.80;99.90
2999;DHT22;1509;51.964;7.628;2022-09-09T00:20:05;16.90;99.90
2999;DHT22;1509;51.964;7.628;2022-09-09T00:22:38;16.90;99.90
2999;DHT22;1509;51.964;7.628;2022-09-09T00:25:15;16.90;99.90
2999;DHT22;1509;51.964;7.628;2022-09-09T00:27:48;17.00;99.90
2999;DHT22;1509;51.964;7.628;2022-09-09T00:30:21;17.00;99.90
2999;DHT22;1509;51.964;7.628;2022-09-09T00:32:59;16.90;99.90
2999;DHT22;1509;51.964;7.628;2022-09-09T00:35:31;16.80;99.90
2999;DHT22;1509;51.964;7.628;2022-09-09T00:38:01;16.50;99.90
2999;DHT22;1509;51.964;7.628;2022-09-09T00:40:38;16.40;99.90
2999;DHT22;1509;51.964;7.628;2022-09-09T00:48:46;16.00;99.90
2999;DHT22;1509;51.964;7.628;2022-09-09T00:51:29;15.90;99.90
2999;DHT22;1509;51.964;7.628;2022-09-09T00:59:51;15.70;99.90
2999;DHT22;1509;51.964;7.628;2022-09-09T01:02:29;15.60;99.90
2999;DHT22;1509;51.964;7.628;2022-09-09T01:05:07;15.50;99.90
2999;DHT22;1509;51.964;7.628;2022-09-09T01:07:36;15.50;99.90
2999;DHT22;1509;51.964;7.628;2022-09-09T01:10:07;15.40;99.90
2999;DHT22;1509;51.964;7.628;2022-09-09T01:12:41;15.40;99.90
2999;DHT22;1509;51.964;7.628;2022-09-09T01:15:14;15.40;99.90
2999;DHT22;1509;51.964;7.628;2022-09-09T01:20:17;15.30;99.90
2999;DHT22;1509;51.964;7.628;2022-09-09T01:22:49;15.20;99.90
2999;DHT22;1509;51.964;7.628;2022-09-09T01:28:11;15.20;99.90
2999;DHT22;1509;51.964;7.628;2022-09-09T01:30:40;15.20;99.90
2999;DHT22;1509;51.964;7.628;2022-09-09T01:33:12;15.20;99.90
2999;DHT22;1509;51.964;7.628;2022-09-09T01:35:59;15.10;99.90
2999;DHT22;1509;51.964;7.628;2022-09-09T01:38:27;15.20;99.90
2999;DHT22;1509;51.964;7.628;2022-09-09T01:40:54;15.20;99.90
2999;DHT22;1509;51.964;7.628;2022-09-09T01:43:24;15.20;99.90
2999;DHT22;1509;51.964;7.628;2022-09-09T01:45:53;15.10;99.90
2999;DHT22;1509;51.964;7.628;2022-09-09T01:48:21;15.10;99.90
2999;DHT22;1509;51.964;7.628;2022-09-09T01:50:46;15.10;99.90
2999;DHT22;1509;51.964;7.628;2022-09-09T01:53:14;15.10;99.90
2999;DHT22;1509;51.964;7.628;2022-09-09T01:56:10;15.10;99.90
2999;DHT22;1509;51.964;7.628;2022-09-09T02:03:52;15.00;99.90
2999;DHT22;1509;51.964;7.628;2022-09-09T02:06:35;15.10;99.90
2999;DHT22;1509;51.964;7.628;2022-09-09T02:09:05;15.10;99.90
2999;DHT22;1509;51.964;7.628;2022-09-09T02:11:31;15.10;99.90
2999;DHT22;1509;51.964;7.628;2022-09-09T02:14:01;15.10;99.90
2999;DHT22;1509;51.964;7.628;2022-09-09T02:19:13;15.00;99.90
2999;DHT22;1509;51.964;7.628;2022-09-09T02:21:43;15.00;99.90
2999;DHT22;1509;51.964;7.628;2022-09-09T02:24:11;15.10;99.90
2999;DHT22;1509;51.964;7.628;2022-09-09T02:26:41;15.00;99.90
2999;DHT22;1509;51.964;7.628;2022-09-09T02:29:18;15.00;99.90
2999;DHT22;1509;51.964;7.628;2022-09-09T02:31:46;15.00;99.90
2999;DHT22;1509;51.964;7.628;2022-09-09T02:34:14;14.90;99.90
2999;DHT22;1509;51.964;7.628;2022-09-09T02:36:41;15.00;99.90
2999;DHT22;1509;51.964;7.628;2022-09-09T02:39:09;14.90;99.90
2999;DHT22;1509;51.964;7.628;2022-09-09T02:41:39;14.90;99.90
2999;DHT22;1509;51.964;7.628;2022-09-09T02:44:16;15.00;99.90
2999;DHT22;1509;51.964;7.628;2022-09-09T02:49:40;15.00;99.90
2999;DHT22;1509;51.964;7.628;2022-09-09T02:52:14;15.00;99.90
2999;DHT22;1509;51.964;7.628;2022-09-09T02:54:42;15.00;99.90
2999;DHT22;1509;51.964;7.628;2022-09-09T02:57:22;15.00;99.90
2999;DHT22;1509;51.964;7.628;2022-09-09T02:59:49;15.00;99.90
2999;DHT22;1509;51.964;7.628;2022-09-09T03:02:15;15.00;99.90
2999;DHT22;1509;51.964;7.628;2022-09-09T03:04:41;15.00;99.90
2999;DHT22;1509;51.964;7.628;2022-09-09T03:07:10;15.00;99.90
2999;DHT22;1509;51.964;7.628;2022-09-09T03:09:35;15.10;99.90
2999;DHT22;1509;51.964;7.628;2022-09-09T03:12:02;15.10;99.90
2999;DHT22;1509;51.964;7.628;2022-09-09T03:14:29;15.00;99.90
2999;DHT22;1509;51.964;7.628;2022-09-09T03:16:56;15.00;99.90
2999;DHT22;1509;51.964;7.628;2022-09-09T03:19:23;15.00;99.90
2999;DHT22;1509;51.964;7.628;2022-09-09T03:21:49;15.00;99.90
2999;DHT22;1509;51.964;7.628;2022-09-09T03:24:15;15.00;99.90
2999;DHT22;1509;51.964;7.628;2022-09-09T03:26:41;15.00;99.90
2999;DHT22;1509;51.964;7.628;2022-09-09T03:29:10;15.10;99.90
2999;DHT22;1509;51.964;7.628;2022-09-09T03:31:38;15.00;99.90
2999;DHT22;1509;51.964;7.628;2022-09-09T03:34:03;15.10;99.90
2999;DHT22;1509;51.964;7.628;2022-09-09T03:36:29;15.10;99.90
2999;DHT22;1509;51.964;7.628;2022-09-09T03:38:55;15.10;99.90
2999;DHT22;1509;51.964;7.628;2022-09-09T03:41:22;15.10;99.90
2999;DHT22;1509;51.964;7.628;2022-09-09T03:43:55;15.10;99.90
2999;DHT22;1509;51.964;7.628;2022-09-09T03:46:22;15.10;99.90
2999;DHT22;1509;51.964;7.628;2022-09-09T03:48:49;15.10;99.90
2999;DHT22;1509;51.964;7.628;2022-09-09T03:51:15;15.20;99.90
2999;DHT22;1509;51.964;7.628;2022-09-09T03:53:41;15.30;99.90
2999;DHT22;1509;51.964;7.628;2022-09-09T03:56:07;15.30;99.90
2999;DHT22;1509;51.964;7.628;2022-09-09T03:58:34;15.40;99.90
2999;DHT22;1509;51.964;7.628;2022-09-09T04:01:05;15.30;99.90
2999;DHT22;1509;51.964;7.628;2022-09-09T04:03:32;15.40;99.90
2999;DHT22;1509;51.964;7.628;2022-09-09T04:05:59;15.30;99.90
2999;DHT22;1509;51.964;7.628;2022-09-09T04:08:26;15.40;99.90
2999;DHT22;1509;51.964;7.628;2022-09-09T04:10:52;15.40;99.90
2999;DHT22;1509;51.964;7.628;2022-09-09T04:13:19;15.40;99.90
2999;DHT22;1509;51.964;7.628;2022-09-09T04:15:54;15.40;99.90
2999;DHT22;1509;51.964;7.628;2022-09-09T04:18:21;15.40;99.90
2999;DHT22;1509;51.964;7.628;2022-09-09T04:20:51;15.40;99.90
2999;DHT22;1509;51.964;7.628;2022-09-09T04:23:18;15.50;99.90
2999;DHT22;1509;51.964;7.628;2022-09-09T04:25:50;15.40;99.90
2999;DHT22;1509;51.964;7.628;2022-09-09T04:28:17;15.50;99.90
2999;DHT22;1509;51.964;7.628;2022-09-09T04:30:44;15.50;99.90
2999;DHT22;1509;51.964;7.628;2022-09-09T04:33:10;15.50;99.90
2999;DHT22;1509;51.964;7.628;2022-09-09T04:35:36;15.50;99.90
2999;DHT22;1509;51.964;7.628;2022-09-09T04:38:03;15.60;99.90
2999;DHT22;1509;51.964;7.628;2022-09-09T04:40:29;15.50;99.90
2999;DHT22;1509;51.964;7.628;2022-09-09T04:42:59;15.50;99.90
2999;DHT22;1509;51.964;7.628;2022-09-09T04:45:24;15.50;99.90
2999;DHT22;1509;51.964;7.628;2022-09-09T04:47:51;15.50;99.90
2999;DHT22;1509;51.964;7.628;2022-09-09T04:50:17;15.50;99.90
2999;DHT22;1509;51.964;7.628;2022-09-09T04:52:44;15.40;99.90
2999;DHT22;1509;51.964;7.628;2022-09-09T04:55:09;15.50;99.90
2999;DHT22;1509;51.964;7.628;2022-09-09T04:57:35;15.50;99.90
2999;DHT22;1509;51.964;7.628;2022-09-09T05:00:01;15.50;99.90
2999;DHT22;1509;51.964;7.628;2022-09-09T05:02:28;15.60;99.90
2999;DHT22;1509;51.964;7.628;2022-09-09T05:04:55;15.60;99.90
2999;DHT22;1509;51.964;7.628;2022-09-09T05:07:21;15.60;99.90
2999;DHT22;1509;51.964;7.628;2022-09-09T05:09:47;15.60;99.90
2999;DHT22;1509;51.964;7.628;2022-09-09T05:12:15;15.70;99.90
2999;DHT22;1509;51.964;7.628;2022-09-09T05:14:42;15.70;99.90
2999;DHT22;1509;51.964;7.628;2022-09-09T05:17:08;15.70;99.90
2999;DHT22;1509;51.964;7.628;2022-09-09T05:19:33;15.70;99.90
2999;DHT22;1509;51.964;7.628;2022-09-09T05:21:59;15.70;99.90
2999;DHT22;1509;51.964;7.628;2022-09-09T05:24:26;15.80;99.90
2999;DHT22;1509;51.964;7.628;2022-09-09T05:26:52;15.80;99.90
2999;DHT22;1509;51.964;7.628;2022-09-09T05:29:17;15.90;99.90
2999;DHT22;1509;51.964;7.628;2022-09-09T05:31:47;15.80;99.90
2999;DHT22;1509;51.964;7.628;2022-09-09T05:34:13;15.90;99.90
2999;DHT22;1509;51.964;7.628;2022-09-09T05:36:38;15.90;99.90
2999;DHT22;1509;51.964;7.628;2022-09-09T05:39:04;15.90;99.90
2999;DHT22;1509;51.964;7.628;2022-09-09T05:41:30;15.90;99.90
2999;DHT22;1509;51.964;7.628;2022-09-09T05:43:57;15.90;99.90
2999;DHT22;1509;51.964;7.628;2022-09-09T05:46:24;16.00;99.90
2999;DHT22;1509;51.964;7.628;2022-09-09T05:48:50;15.90;99.90
2999;DHT22;1509;51.964;7.628;2022-09-09T05:51:25;16.00;99.90
2999;DHT22;1509;51.964;7.628;2022-09-09T05:53:52;16.00;99.90
2999;DHT22;1509;51.964;7.628;2022-09-09T05:56:23;16.10;99.90
2999;DHT22;1509;51.964;7.628;2022-09-09T05:58:50;16.10;99.90
2999;DHT22;1509;51.964;7.628;2022-09-09T06:01:20;16.10;99.90
2999;DHT22;1509;51.964;7.628;2022-09-09T06:03:47;16.20;99.90
2999;DHT22;1509;51.964;7.628;2022-09-09T06:06:16;16.20;99.90
2999;DHT22;1509;51.964;7.628;2022-09-09T06:08:44;16.20;99.90
2999;DHT22;1509;51.964;7.628;2022-09-09T06:11:11;16.20;99.90
2999;DHT22;1509;51.964;7.628;2022-09-09T06:13:38;16.30;99.90
2999;DHT22;1509;51.964;7.628;2022-09-09T06:16:05;16.40;99.90
2999;DHT22;1509;51.964;7.628;2022-09-09T06:18:32;16.40;99.90
2999;DHT22;1509;51.964;7.628;2022-09-09T06:21:02;16.50;99.90
2999;DHT22;1509;51.964;7.628;2022-09-09T06:23:32;16.50;99.90
2999;DHT22;1509;51.964;7.628;2022-09-09T06:26:05;16.50;99.90
2999;DHT22;1509;51.964;7.628;2022-09-09T06:28:34;16.50;99.90
2999;DHT22;1509;51.964;7.628;2022-09-09T06:31:02;16.60;99.90
2999;DHT22;1509;51.964;7.628;2022-09-09T06:33:33;16.80;99.90
2999;DHT22;1509;51.964;7.628;2022-09-09T06:36:00;16.70;99.90
2999;DHT22;1509;51.964;7.628;2022-09-09T06:38:29;16.70;99.90
2999;DHT22;1509;51.964;7.628;2022-09-09T06:40:56;16.70;99.90
2999;DHT22;1509;51.964;7.628;2022-09-09T06:43:24;16.70;99.90
2999;DHT22;1509;51.964;7.628;2022-09-09T06:45:57;16.80;99.90
2999;DHT22;1509;51.964;7.628;2022-09-09T06:48:23;16.90;99.90
2999;DHT22;1509;51.964;7.628;2022-09-09T06:50:49;16.90;99.90
2999;DHT22;1509;51.964;7.628;2022-09-09T06:53:17;17.10;99.90
2999;DHT22;1509;51.964;7.628;2022-09-09T06:55:45;17.00;99.90
2999;DHT22;1509;51.964;7.628;2022-09-09T06:58:10;17.10;99.90
2999;DHT22;1509;51.964;7.628;2022-09-09T07:00:36;17.10;99.90
2999;DHT22;1509;51.964;7.628;2022-09-09T07:03:04;17.20;99.90
2999;DHT22;1509;51.964;7.628;2022-09-09T07:05:31;17.20;99.90
2999;DHT22;1509;51.964;7.628;2022-09-09T07:07:57;17.30;99.90
2999;DHT22;1509;51.964;7.628;2022-09-09T07:10:24;17.30;99.90
2999;DHT22;1509;51.964;7.628;2022-09-09T07:12:56;17.30;99.90
2999;DHT22;1509;51.964;7.628;2022-09-09T07:15:21;17.30;99.90
2999;DHT22;1509;51.964;7.628;2022-09-09T07:17:48;17.30;99.90
2999;DHT22;1509;51.964;7.628;2022-09-09T07:20:14;17.40;99.90
2999;DHT22;1509;51.964;7.628;2022-09-09T07:22:40;17.40;99.90
2999;DHT22;1509;51.964;7.628;2022-09-09T07:25:07;17.50;99.90
2999;DHT22;1509;51.964;7.628;2022-09-09T07:27:32;17.50;99.90
2999;DHT22;1509;51.964;7.628;2022-09-09T07:29:58;17.40;99.90
2999;DHT22;1509;51.964;7.628;2022-09-09T07:32:24;17.40;99.90
2999;DHT22;1509;51.964;7.628;2022-09-09T07:34:51;17.50;99.90
2999;DHT22;1509;51.964;7.628;2022-09-09T07:37:16;17.50;99.90
2999;DHT22;1509;51.964;7.628;2022-09-09T07:39:43;17.50;99.90
2999;DHT22;1509;51.964;7.628;2022-09-09T07:42:09;17.70;99.90
2999;DHT22;1509;51.964;7.628;2022-09-09T07:44:36;17.80;99.90
2999;DHT22;1509;51.964;7.628;2022-09-09T07:47:04;17.90;99.90
2999;DHT22;1509;51.964;7.628;2022-09-09T07:49:30;17.90;99.90
2999;DHT22;1509;51.964;7.628;2022-09-09T07:51:57;18.00;99.90
2999;DHT22;1509;51.964;7.628;2022-09-09T07:54:23;18.10;99.90
2999;DHT22;1509;51.964;7.628;2022-09-09T07:56:49;18.10;99.90
2999;DHT22;1509;51.964;7.628;2022-09-09T07:59:15;18.30;99.90
2999;DHT22;1509;51.964;7.628;2022-09-09T08:01:50;18.40;99.90
2999;DHT22;1509;51.964;7.628;2022-09-09T08:04:20;18.40;99.90
2999;DHT22;1509;51.964;7.628;2022-09-09T08:07:00;18.30;99.90
2999;DHT22;1509;51.964;7.628;2022-09-09T08:09:27;18.30;99.90
2999;DHT22;1509;51.964;7.628;2022-09-09T08:11:54;18.10;99.90
2999;DHT22;1509;51.964;7.628;2022-09-09T08:14:22;18.20;99.90
2999;DHT22;1509;51.964;7.628;2022-09-09T08:16:49;18.30;99.90
2999;DHT22;1509;51.964;7.628;2022-09-09T08:19:15;18.40;99.90
2999;DHT22;1509;51.964;7.628;2022-09-09T08:21:41;18.60;99.90
2999;DHT22;1509;51.964;7.628;2022-09-09T08:24:09;18.90;99.90
2999;DHT22;1509;51.964;7.628;2022-09-09T08:26:43;18.90;99.90
2999;DHT22;1509;51.964;7.628;2022-09-09T08:29:11;18.80;99.90
2999;DHT22;1509;51.964;7.628;2022-09-09T08:31:43;19.10;99.90
2999;DHT22;1509;51.964;7.628;2022-09-09T08:34:09;19.40;99.90
2999;DHT22;1509;51.964;7.628;2022-09-09T08:36:38;19.30;99.90
2999;DHT22;1509;51.964;7.628;2022-09-09T08:39:05;19.00;99.90
2999;DHT22;1509;51.964;7.628;2022-09-09T08:50:38;21.60;99.90
2999;DHT22;1509;51.964;7.628;2022-09-09T08:53:14;22.60;99.90
2999;DHT22;1509;51.964;7.628;2022-09-09T08:55:48;22.90;99.90
2999;DHT22;1509;51.964;7.628;2022-09-09T08:58:21;22.70;99.90
2999;DHT22;1509;51.964;7.628;2022-09-09T09:07:07;21.40;99.90
2999;DHT22;1509;51.964;7.628;2022-09-09T09:12:18;24.00;99.90
2999;DHT22;1509;51.964;7.628;2022-09-09T09:14:46;24.70;99.90
2999;DHT22;1509;51.964;7.628;2022-09-09T09:17:20;24.80;99.90
2999;DHT22;1509;51.964;7.628;2022-09-09T09:19:48;23.40;99.90
2999;DHT22;1509;51.964;7.628;2022-09-09T09:24:53;25.20;99.90
2999;DHT22;1509;51.964;7.628;2022-09-09T09:29:51;26.20;99.90
2999;DHT22;1509;51.964;7.628;2022-09-09T09:32:21;26.00;99.90
2999;DHT22;1509;51.964;7.628;2022-09-09T09:34:54;25.00;99.90
2999;DHT22;1509;51.964;7.628;2022-09-09T09:37:29;24.00;99.90
2999;DHT22;1509;51.964;7.628;2022-09-09T09:39:55;22.80;99.90
2999;DHT22;1509;51.964;7.628;2022-09-09T09:42:25;22.20;99.90
2999;DHT22;1509;51.964;7.628;2022-09-09T09:44:50;21.80;99.90
2999;DHT22;1509;51.964;7.628;2022-09-09T09:47:21;22.60;99.90
2999;DHT22;1509;51.964;7.628;2022-09-09T09:49:57;23.90;99.90
2999;DHT22;1509;51.964;7.628;2022-09-09T09:52:29;25.50;99.90
2999;DHT22;1509;51.964;7.628;2022-09-09T09:54:57;24.40;99.90
2999;DHT22;1509;51.964;7.628;2022-09-09T09:57:26;24.10;99.90
2999;DHT22;1509;51.964;7.628;2022-09-09T10:02:41;22.80;99.90
2999;DHT22;1509;51.964;7.628;2022-09-09T10:05:22;21.60;99.90
2999;DHT22;1509;51.964;7.628;2022-09-09T10:08:20;20.70;99.90
2999;DHT22;1509;51.964;7.628;2022-09-09T10:19:34;26.40;99.90
2999;DHT22;1509;51.964;7.628;2022-09-09T10:22:27;27.10;99.90
2999;DHT22;1509;51.964;7.628;2022-09-09T10:30:52;26.30;99.90
2999;DHT22;1509;51.964;7.628;2022-09-09T10:38:54;26.10;99.90
2999;DHT22;1509;51.964;7.628;2022-09-09T10:41:45;25.00;99.90
2999;DHT22;1509;51.964;7.628;2022-09-09T10:44:54;23.90;99.90
2999;DHT22;1509;51.964;7.628;2022-09-09T10:50:40;24.20;99.90
2999;DHT22;1509;51.964;7.628;2022-09-09T10:53:26;25.70;99.90
2999;DHT22;1509;51.964;7.628;2022-09-09T10:56:11;27.30;99.90
2999;DHT22;1509;51.964;7.628;2022-09-09T10:58:55;28.20;99.90
2999;DHT22;1509;51.964;7.628;2022-09-09T11:04:33;27.30;99.90
2999;DHT22;1509;51.964;7.628;2022-09-09T11:07:05;26.00;99.90
2999;DHT22;1509;51.964;7.628;2022-09-09T11:09:37;25.20;99.90
2999;DHT22;1509;51.964;7.628;2022-09-09T11:12:05;23.90;99.90
2999;DHT22;1509;51.964;7.628;2022-09-09T11:14:43;23.50;99.90
2999;DHT22;1509;51.964;7.628;2022-09-09T11:17:15;24.00;99.90
2999;DHT22;1509;51.964;7.628;2022-09-09T11:19:45;24.80;99.90
2999;DHT22;1509;51.964;7.628;2022-09-09T11:22:33;25.10;99.90
2999;DHT22;1509;51.964;7.628;2022-09-09T11:25:18;23.90;99.90
2999;DHT22;1509;51.964;7.628;2022-09-09T11:30:55;23.40;99.90
2999;DHT22;1509;51.964;7.628;2022-09-09T11:37:02;23.30;99.90
2999;DHT22;1509;51.964;7.628;2022-09-09T11:44:38;23.60;99.90
2999;DHT22;1509;51.964;7.628;2022-09-09T11:49:49;23.40;99.90
2999;DHT22;1509;51.964;7.628;2022-09-09T11:52:35;23.20;99.90
2999;DHT22;1509;51.964;7.628;2022-09-09T11:55:24;23.30;99.90
2999;DHT22;1509;51.964;7.628;2022-09-09T11:57:59;23.10;99.90
2999;DHT22;1509;51.964;7.628;2022-09-09T12:00:41;23.30;99.90
2999;DHT22;1509;51.964;7.628;2022-09-09T12:06:25;26.00;99.90
2999;DHT22;1509;51.964;7.628;2022-09-09T12:08:57;26.40;99.90
2999;DHT22;1509;51.964;7.628;2022-09-09T12:11:26;26.70;99.90
2999;DHT22;1509;51.964;7.628;2022-09-09T12:13:57;26.30;99.90
2999;DHT22;1509;51.964;7.628;2022-09-09T12:16:36;25.30;99.90
2999;DHT22;1509;51.964;7.628;2022-09-09T12:19:19;24.80;99.90
2999;DHT22;1509;51.964;7.628;2022-09-09T12:22:27;24.20;99.90
2999;DHT22;1509;51.964;7.628;2022-09-09T12:28:02;24.00;99.90
2999;DHT22;1509;51.964;7.628;2022-09-09T12:30:37;23.80;99.90
2999;DHT22;1509;51.964;7.628;2022-09-09T12:33:11;23.90;99.90
2999;DHT22;1509;51.964;7.628;2022-09-09T12:35:40;23.30;99.90
2999;DHT22;1509;51.964;7.628;2022-09-09T12:38:14;23.70;99.90
2999;DHT22;1509;51.964;7.628;2022-09-09T12:40:41;24.70;99.90
2999;DHT22;1509;51.964;7.628;2022-09-09T12:43:21;25.20;99.90
2999;DHT22;1509;51.964;7.628;2022-09-09T12:45:48;25.30;99.90
2999;DHT22;1509;51.964;7.628;2022-09-09T12:48:18;25.20;99.90
2999;DHT22;1509;51.964;7.628;2022-09-09T12:50:49;25.30;99.90
2999;DHT22;1509;51.964;7.628;2022-09-09T12:53:26;26.60;99.90
2999;DHT22;1509;51.964;7.628;2022-09-09T12:56:00;26.20;99.90
2999;DHT22;1509;51.964;7.628;2022-09-09T12:58:29;25.00;99.90
2999;DHT22;1509;51.964;7.628;2022-09-09T13:00:59;24.30;99.90
2999;DHT22;1509;51.964;7.628;2022-09-09T13:03:25;24.20;99.90
2999;DHT22;1509;51.964;7.628;2022-09-09T13:05:52;24.10;99.90
2999;DHT22;1509;51.964;7.628;2022-09-09T13:08:19;25.20;99.90
2999;DHT22;1509;51.964;7.628;2022-09-09T13:10:51;25.20;99.90
2999;DHT22;1509;51.964;7.628;2022-09-09T13:13:28;24.50;99.90
2999;DHT22;1509;51.964;7.628;2022-09-09T13:15:57;24.00;99.90
2999;DHT22;1509;51.964;7.628;2022-09-09T13:18:27;23.80;99.90
2999;DHT22;1509;51.964;7.628;2022-09-09T13:20:54;23.70;99.90
2999;DHT22;1509;51.964;7.628;2022-09-09T13:23:21;23.60;99.90
2999;DHT22;1509;51.964;7.628;2022-09-09T13:25:59;22.90;99.90
2999;DHT22;1509;51.964;7.628;2022-09-09T13:28:27;22.70;99.90
2999;DHT22;1509;51.964;7.628;2022-09-09T13:31:20;21.70;99.90
2999;DHT22;1509;51.964;7.628;2022-09-09T13:33:46;20.10;99.90
2999;DHT22;1509;51.964;7.628;2022-09-09T13:36:12;19.00;99.90
2999;DHT22;1509;51.964;7.628;2022-09-09T13:41:42;17.60;99.90
2999;DHT22;1509;51.964;7.628;2022-09-09T13:44:25;17.60;99.90
2999;DHT22;1509;51.964;7.628;2022-09-09T13:49:38;17.70;99.90
2999;DHT22;1509;51.964;7.628;2022-09-09T13:52:12;17.90;99.90
2999;DHT22;1509;51.964;7.628;2022-09-09T13:54:39;18.00;99.90
2999;DHT22;1509;51.964;7.628;2022-09-09T13:57:11;17.90;99.90
2999;DHT22;1509;51.964;7.628;2022-09-09T13:59:39;17.90;99.90
2999;DHT22;1509;51.964;7.628;2022-09-09T14:02:04;17.90;99.90
2999;DHT22;1509;51.964;7.628;2022-09-09T14:04:30;17.80;99.90
2999;DHT22;1509;51.964;7.628;2022-09-09T14:06:56;17.80;99.90
2999;DHT22;1509;51.964;7.628;2022-09-09T14:09:21;18.10;99.90
2999;DHT22;1509;51.964;7.628;2022-09-09T14:11:47;18.20;99.90
2999;DHT22;1509;51.964;7.628;2022-09-09T14:14:13;18.30;99.90
2999;DHT22;1509;51.964;7.628;2022-09-09T14:16:38;18.60;99.90
2999;DHT22;1509;51.964;7.628;2022-09-09T14:19:04;18.80;99.90
2999;DHT22;1509;51.964;7.628;2022-09-09T14:21:30;18.70;99.90
2999;DHT22;1509;51.964;7.628;2022-09-09T14:23:55;18.80;99.90
2999;DHT22;1509;51.964;7.628;2022-09-09T14:26:24;18.80;99.90
2999;DHT22;1509;51.964;7.628;2022-09-09T14:28:50;18.70;99.90
2999;DHT22;1509;51.964;7.628;2022-09-09T14:31:17;18.30;99.90
2999;DHT22;1509;51.964;7.628;2022-09-09T14:33:44;17.80;99.90
2999;DHT22;1509;51.964;7.628;2022-09-09T14:36:10;17.40;99.90
2999;DHT22;1509;51.964;7.628;2022-09-09T14:38:37;17.10;99.90
2999;DHT22;1509;51.964;7.628;2022-09-09T14:41:07;16.90;99.90
2999;DHT22;1509;51.964;7.628;2022-09-09T14:43:34;16.70;99.90
2999;DHT22;1509;51.964;7.628;2022-09-09T14:46:14;16.60;99.90
2999;DHT22;1509;51.964;7.628;2022-09-09T14:48:40;16.60;99.90
2999;DHT22;1509;51.964;7.628;2022-09-09T14:51:21;16.60;99.90
2999;DHT22;1509;51.964;7.628;2022-09-09T14:53:50;16.40;99.90
2999;DHT22;1509;51.964;7.628;2022-09-09T14:56:20;16.40;99.90
2999;DHT22;1509;51.964;7.628;2022-09-09T14:58:47;16.30;99.90
2999;DHT22;1509;51.964;7.628;2022-09-09T15:01:18;16.30;99.90
2999;DHT22;1509;51.964;7.628;2022-09-09T15:03:50;16.40;99.90
2999;DHT22;1509;51.964;7.628;2022-09-09T15:06:16;16.60;99.90
2999;DHT22;1509;51.964;7.628;2022-09-09T15:08:43;16.50;99.90
2999;DHT22;1509;51.964;7.628;2022-09-09T15:11:10;16.70;99.90
2999;DHT22;1509;51.964;7.628;2022-09-09T15:13:38;16.50;99.90
2999;DHT22;1509;51.964;7.628;2022-09-09T15:18:37;16.60;99.90
2999;DHT22;1509;51.964;7.628;2022-09-09T15:21:12;16.70;99.90
2999;DHT22;1509;51.964;7.628;2022-09-09T15:23:38;16.90;99.90
2999;DHT22;1509;51.964;7.628;2022-09-09T15:26:04;17.00;99.90
2999;DHT22;1509;51.964;7.628;2022-09-09T15:28:32;16.90;99.90
2999;DHT22;1509;51.964;7.628;2022-09-09T15:31:05;17.00;99.90
2999;DHT22;1509;51.964;7.628;2022-09-09T15:33:32;17.10;99.90
2999;DHT22;1509;51.964;7.628;2022-09-09T15:35:58;17.20;99.90
2999;DHT22;1509;51.964;7.628;2022-09-09T15:38:24;17.30;99.90
2999;DHT22;1509;51.964;7.628;2022-09-09T15:40:54;17.20;99.90
2999;DHT22;1509;51.964;7.628;2022-09-09T15:43:20;17.30;99.90
2999;DHT22;1509;51.964;7.628;2022-09-09T15:45:53;17.30;99.90
2999;DHT22;1509;51.964;7.628;2022-09-09T15:48:30;17.40;99.90
2999;DHT22;1509;51.964;7.628;2022-09-09T15:51:04;17.50;99.90
2999;DHT22;1509;51.964;7.628;2022-09-09T15:53:30;17.40;99.90
2999;DHT22;1509;51.964;7.628;2022-09-09T15:55:58;17.50;99.90
2999;DHT22;1509;51.964;7.628;2022-09-09T15:58:23;17.60;99.90
2999;DHT22;1509;51.964;7.628;2022-09-09T16:00:49;17.60;99.90
2999;DHT22;1509;51.964;7.628;2022-09-09T16:03:15;17.70;99.90
2999;DHT22;1509;51.964;7.628;2022-09-09T16:05:40;17.60;99.90
2999;DHT22;1509;51.964;7.628;2022-09-09T16:08:06;17.60;99.90
2999;DHT22;1509;51.964;7.628;2022-09-09T16:10:32;17.50;99.90
2999;DHT22;1509;51.964;7.628;2022-09-09T16:12:57;17.50;99.90
2999;DHT22;1509;51.964;7.628;2022-09-09T16:15:24;17.50;99.90
2999;DHT22;1509;51.964;7.628;2022-09-09T16:17:53;17.50;99.90
2999;DHT22;1509;51.964;7.628;2022-09-09T16:20:19;17.50;99.90
2999;DHT22;1509;51.964;7.628;2022-09-09T16:22:44;17.50;99.90
2999;DHT22;1509;51.964;7.628;2022-09-09T16:25:10;17.50;99.90
2999;DHT22;1509;51.964;7.628;2022-09-09T16:27:36;17.50;99.90
2999;DHT22;1509;51.964;7.628;2022-09-09T16:30:02;17.60;99.90
2999;DHT22;1509;51.964;7.628;2022-09-09T16:32:28;17.50;99.90
2999;DHT22;1509;51.964;7.628;2022-09-09T16:34:54;17.50;99.90
2999;DHT22;1509;51.964;7.628;2022-09-09T16:37:19;17.30;99.90
2999;DHT22;1509;51.964;7.628;2022-09-09T16:39:45;16.90;99.90
2999;DHT22;1509;51.964;7.628;2022-09-09T16:42:14;16.70;99.90
2999;DHT22;1509;51.964;7.628;2022-09-09T16:44:39;16.60;99.90
2999;DHT22;1509;51.964;7.628;2022-09-09T16:47:06;16.50;99.90
2999;DHT22;1509;51.964;7.628;2022-09-09T16:49:32;16.40;99.90
2999;DHT22;1509;51.964;7.628;2022-09-09T16:51:58;16.40;99.90
2999;DHT22;1509;51.964;7.628;2022-09-09T16:54:24;16.40;99.90
2999;DHT22;1509;51.964;7.628;2022-09-09T16:56:52;16.30;99.90
2999;DHT22;1509;51.964;7.628;2022-09-09T16:59:19;16.30;99.90
2999;DHT22;1509;51.964;7.628;2022-09-09T17:01:47;16.30;99.90
2999;DHT22;1509;51.964;7.628;2022-09-09T17:04:17;16.30;99.90
2999;DHT22;1509;51.964;7.628;2022-09-09T17:06:50;16.30;99.90
2999;DHT22;1509;51.964;7.628;2022-09-09T17:09:17;16.30;99.90
2999;DHT22;1509;51.964;7.628;2022-09-09T17:11:43;16.40;99.90
2999;DHT22;1509;51.964;7.628;2022-09-09T17:14:12;16.40;99.90
2999;DHT22;1509;51.964;7.628;2022-09-09T17:16:39;16.40;99.90
2999;DHT22;1509;51.964;7.628;2022-09-09T17:19:05;16.40;99.90
2999;DHT22;1509;51.964;7.628;2022-09-09T17:21:32;16.50;99.90
2999;DHT22;1509;51.964;7.628;2022-09-09T17:23:58;16.50;99.90
2999;DHT22;1509;51.964;7.628;2022-09-09T17:26:27;16.50;99.90
2999;DHT22;1509;51.964;7.628;2022-09-09T17:28:54;16.40;99.90
2999;DHT22;1509;51.964;7.628;2022-09-09T17:31:21;16.40;99.90
2999;DHT22;1509;51.964;7.628;2022-09-09T17:33:49;16.40;99.90
2999;DHT22;1509;51.964;7.628;2022-09-09T17:36:18;16.30;99.90
2999;DHT22;1509;51.964;7.628;2022-09-09T17:38:44;16.20;99.90
2999;DHT22;1509;51.964;7.628;2022-09-09T17:41:17;16.10;99.90
2999;DHT22;1509;51.964;7.628;2022-09-09T17:43:43;16.00;99.90
2999;DHT22;1509;51.964;7.628;2022-09-09T17:46:11;16.00;99.90
2999;DHT22;1509;51.964;7.628;2022-09-09T17:48:38;16.00;99.90
2999;DHT22;1509;51.964;7.628;2022-09-09T17:51:06;15.90;99.90
2999;DHT22;1509;51.964;7.628;2022-09-09T17:53:37;15.90;99.90
2999;DHT22;1509;51.964;7.628;2022-09-09T17:56:04;15.80;99.90
2999;DHT22;1509;51.964;7.628;2022-09-09T17:58:30;15.80;99.90
2999;DHT22;1509;51.964;7.628;2022-09-09T18:01:00;15.80;99.90
2999;DHT22;1509;51.964;7.628;2022-09-09T18:03:26;15.70;99.90
2999;DHT22;1509;51.964;7.628;2022-09-09T18:05:52;15.70;99.90
2999;DHT22;1509;51.964;7.628;2022-09-09T18:08:17;15.80;99.90
2999;DHT22;1509;51.964;7.628;2022-09-09T18:10:51;15.80;99.90
2999;DHT22;1509;51.964;7.628;2022-09-09T18:13:18;15.90;99.90
2999;DHT22;1509;51.964;7.628;2022-09-09T18:15:43;15.90;99.90